sensor_id;sensor_type;location;lat;lon;timestamp;P1;durP1;ratioP1;P2;durP2;ratioP2
65202;SDS011;51788;45.124;38.966;2022-09-17T00:01:13;9.73;;;5.35;;
65202;SDS011;51788;45.124;38.966;2022-09-17T00:03:41;7.07;;;5.60;;
65202;SDS011;51788;45.124;38.966;2022-09-17T00:06:09;6.72;;;5.20;;
65202;SDS011;51788;45.124;38.966;2022-09-17T00:08:38;7.65;;;5.55;;
65202;SDS011;51788;45.124;38.966;2022-09-17T00:11:16;7.95;;;7.07;;
65202;SDS011;51788;45.124;38.966;2022-09-17T00:13:45;8.10;;;6.30;;
65202;SDS011;51788;45.124;38.966;2022-09-17T00:16:11;10.85;;;6.03;;
65202;SDS011;51788;45.124;38.966;2022-09-17T00:18:38;7.05;;;5.57;;
65202;SDS011;51788;45.124;38.966;2022-09-17T00:21:14;7.25;;;6.35;;
65202;SDS011;51788;45.124;38.966;2022-09-17T00:23:41;11.43;;;6.40;;
65202;SDS011;51788;45.124;38.966;2022-09-17T00:26:07;7.93;;;6.30;;
65202;SDS011;51788;45.124;38.966;2022-09-17T00:28:33;11.57;;;6.68;;
65202;SDS011;51788;45.124;38.966;2022-09-17T00:30:59;8.90;;;6.80;;
65202;SDS011;51788;45.124;38.966;2022-09-17T00:33:25;6.88;;;6.25;;
65202;SDS011;51788;45.124;38.966;2022-09-17T00:35:58;9.50;;;6.43;;
65202;SDS011;51788;45.124;38.966;2022-09-17T00:38:25;8.15;;;6.03;;
65202;SDS011;51788;45.124;38.966;2022-09-17T00:40:52;7.85;;;6.50;;
65202;SDS011;51788;45.124;38.966;2022-09-17T00:43:38;7.00;;;6.45;;
65202;SDS011;51788;45.124;38.966;2022-09-17T00:46:21;9.48;;;6.38;;
65202;SDS011;51788;45.124;38.966;2022-09-17T00:48:57;8.70;;;6.90;;
65202;SDS011;51788;45.124;38.966;2022-09-17T00:51:29;7.35;;;6.53;;
65202;SDS011;51788;45.124;38.966;2022-09-17T00:54:04;7.60;;;6.10;;
65202;SDS011;51788;45.124;38.966;2022-09-17T00:56:33;6.85;;;6.25;;
65202;SDS011;51788;45.124;38.966;2022-09-17T00:59:01;7.30;;;6.60;;
65202;SDS011;51788;45.124;38.966;2022-09-17T01:01:28;8.23;;;6.63;;
65202;SDS011;51788;45.124;38.966;2022-09-17T01:03:55;9.95;;;6.30;;
65202;SDS011;51788;45.124;38.966;2022-09-17T01:06:38;8.68;;;6.43;;
65202;SDS011;51788;45.124;38.966;2022-09-17T01:17:27;10.02;;;7.00;;
65202;SDS011;51788;45.124;38.966;2022-09-17T01:25:23;11.48;;;6.57;;
65202;SDS011;51788;45.124;38.966;2022-09-17T01:42:06;8.20;;;7.07;;
65202;SDS011;51788;45.124;38.966;2022-09-17T01:45:04;10.40;;;7.75;;
65202;SDS011;51788;45.124;38.966;2022-09-17T01:48:15;8.48;;;6.88;;
65202;SDS011;51788;45.124;38.966;2022-09-17T01:50:52;10.77;;;7.10;;
65202;SDS011;51788;45.124;38.966;2022-09-17T01:53:35;11.82;;;7.55;;
65202;SDS011;51788;45.124;38.966;2022-09-17T01:56:08;8.02;;;7.00;;
65202;SDS011;51788;45.124;38.966;2022-09-17T01:58:43;11.48;;;8.02;;
65202;SDS011;51788;45.124;38.966;2022-09-17T02:01:16;10.20;;;6.72;;
65202;SDS011;51788;45.124;38.966;2022-09-17T02:04:01;9.65;;;6.70;;
65202;SDS011;51788;45.124;38.966;2022-09-17T02:06:38;12.60;;;6.50;;
65202;SDS011;51788;45.124;38.966;2022-09-17T02:09:14;13.70;;;6.57;;
65202;SDS011;51788;45.124;38.966;2022-09-17T02:11:45;10.52;;;6.95;;
65202;SDS011;51788;45.124;38.966;2022-09-17T02:14:19;9.13;;;7.38;;
65202;SDS011;51788;45.124;38.966;2022-09-17T02:16:49;7.85;;;6.40;;
65202;SDS011;51788;45.124;38.966;2022-09-17T02:19:21;12.45;;;7.70;;
65202;SDS011;51788;45.124;38.966;2022-09-17T02:27:04;14.88;;;7.20;;
65202;SDS011;51788;45.124;38.966;2022-09-17T02:29:38;12.55;;;7.57;;
65202;SDS011;51788;45.124;38.966;2022-09-17T02:32:08;12.98;;;6.88;;
65202;SDS011;51788;45.124;38.966;2022-09-17T02:34:35;9.30;;;7.15;;
65202;SDS011;51788;45.124;38.966;2022-09-17T02:37:01;10.15;;;6.78;;
65202;SDS011;51788;45.124;38.966;2022-09-17T02:39:29;11.00;;;7.60;;
65202;SDS011;51788;45.124;38.966;2022-09-17T02:50:43;18.77;;;8.10;;
65202;SDS011;51788;45.124;38.966;2022-09-17T02:55:58;17.48;;;8.88;;
65202;SDS011;51788;45.124;38.966;2022-09-17T02:58:39;14.95;;;8.82;;
65202;SDS011;51788;45.124;38.966;2022-09-17T03:01:23;17.08;;;8.95;;
65202;SDS011;51788;45.124;38.966;2022-09-17T03:03:54;14.40;;;9.02;;
65202;SDS011;51788;45.124;38.966;2022-09-17T03:06:24;12.35;;;8.98;;
65202;SDS011;51788;45.124;38.966;2022-09-17T03:08:50;11.80;;;8.65;;
65202;SDS011;51788;45.124;38.966;2022-09-17T03:11:16;13.05;;;8.38;;
65202;SDS011;51788;45.124;38.966;2022-09-17T03:13:42;16.75;;;9.90;;
65202;SDS011;51788;45.124;38.966;2022-09-17T03:16:08;13.60;;;8.48;;
65202;SDS011;51788;45.124;38.966;2022-09-17T03:18:34;14.30;;;8.95;;
65202;SDS011;51788;45.124;38.966;2022-09-17T03:21:00;14.77;;;8.73;;
65202;SDS011;51788;45.124;38.966;2022-09-17T03:23:26;14.43;;;9.25;;
65202;SDS011;51788;45.124;38.966;2022-09-17T03:25:52;11.38;;;8.68;;
65202;SDS011;51788;45.124;38.966;2022-09-17T03:28:19;14.20;;;9.20;;
65202;SDS011;51788;45.124;38.966;2022-09-17T03:30:45;20.23;;;9.07;;
65202;SDS011;51788;45.124;38.966;2022-09-17T03:33:11;18.13;;;8.38;;
65202;SDS011;51788;45.124;38.966;2022-09-17T03:35:41;15.10;;;8.73;;
65202;SDS011;51788;45.124;38.966;2022-09-17T03:38:07;19.40;;;9.02;;
65202;SDS011;51788;45.124;38.966;2022-09-17T03:40:33;19.55;;;9.52;;
65202;SDS011;51788;45.124;38.966;2022-09-17T03:42:59;15.85;;;8.82;;
65202;SDS011;51788;45.124;38.966;2022-09-17T03:45:25;17.45;;;8.48;;
65202;SDS011;51788;45.124;38.966;2022-09-17T03:47:51;14.02;;;8.30;;
65202;SDS011;51788;45.124;38.966;2022-09-17T03:50:17;14.13;;;8.20;;
65202;SDS011;51788;45.124;38.966;2022-09-17T03:52:43;15.55;;;9.10;;
65202;SDS011;51788;45.124;38.966;2022-09-17T03:55:09;21.40;;;8.70;;
65202;SDS011;51788;45.124;38.966;2022-09-17T03:57:35;14.88;;;8.30;;
65202;SDS011;51788;45.124;38.966;2022-09-17T04:00:02;19.42;;;8.90;;
65202;SDS011;51788;45.124;38.966;2022-09-17T04:02:37;14.45;;;8.20;;
65202;SDS011;51788;45.124;38.966;2022-09-17T04:05:03;20.90;;;8.85;;
65202;SDS011;51788;45.124;38.966;2022-09-17T04:07:29;14.57;;;7.97;;
65202;SDS011;51788;45.124;38.966;2022-09-17T04:09:55;16.35;;;8.00;;
65202;SDS011;51788;45.124;38.966;2022-09-17T04:12:21;14.73;;;9.13;;
65202;SDS011;51788;45.124;38.966;2022-09-17T04:14:47;18.08;;;8.98;;
65202;SDS011;51788;45.124;38.966;2022-09-17T04:17:13;11.88;;;7.53;;
65202;SDS011;51788;45.124;38.966;2022-09-17T04:19:42;19.02;;;8.13;;
65202;SDS011;51788;45.124;38.966;2022-09-17T04:22:09;10.85;;;8.00;;
65202;SDS011;51788;45.124;38.966;2022-09-17T04:24:35;10.57;;;7.85;;
65202;SDS011;51788;45.124;38.966;2022-09-17T04:27:01;23.73;;;8.43;;
65202;SDS011;51788;45.124;38.966;2022-09-17T04:29:27;24.23;;;8.65;;
65202;SDS011;51788;45.124;38.966;2022-09-17T04:31:53;12.57;;;8.70;;
65202;SDS011;51788;45.124;38.966;2022-09-17T04:34:19;14.43;;;9.32;;
65202;SDS011;51788;45.124;38.966;2022-09-17T04:36:45;21.20;;;7.82;;
65202;SDS011;51788;45.124;38.966;2022-09-17T04:39:10;18.48;;;7.47;;
65202;SDS011;51788;45.124;38.966;2022-09-17T04:41:36;14.30;;;8.68;;
65202;SDS011;51788;45.124;38.966;2022-09-17T04:44:02;11.10;;;7.63;;
65202;SDS011;51788;45.124;38.966;2022-09-17T04:46:28;13.90;;;7.65;;
65202;SDS011;51788;45.124;38.966;2022-09-17T04:48:54;14.93;;;7.50;;
65202;SDS011;51788;45.124;38.966;2022-09-17T04:51:20;20.83;;;8.63;;
65202;SDS011;51788;45.124;38.966;2022-09-17T04:53:46;12.43;;;7.35;;
65202;SDS011;51788;45.124;38.966;2022-09-17T04:56:13;13.73;;;7.60;;
65202;SDS011;51788;45.124;38.966;2022-09-17T04:58:39;24.13;;;8.18;;
65202;SDS011;51788;45.124;38.966;2022-09-17T05:01:05;15.75;;;7.75;;
65202;SDS011;51788;45.124;38.966;2022-09-17T05:03:31;12.85;;;7.47;;
65202;SDS011;51788;45.124;38.966;2022-09-17T05:05:57;15.88;;;6.85;;
65202;SDS011;51788;45.124;38.966;2022-09-17T05:08:22;18.50;;;6.82;;
65202;SDS011;51788;45.124;38.966;2022-09-17T05:10:50;18.70;;;7.57;;
65202;SDS011;51788;45.124;38.966;2022-09-17T05:13:16;13.98;;;7.55;;
65202;SDS011;51788;45.124;38.966;2022-09-17T05:15:43;17.20;;;8.02;;
65202;SDS011;51788;45.124;38.966;2022-09-17T05:18:09;10.82;;;6.80;;
65202;SDS011;51788;45.124;38.966;2022-09-17T05:20:35;14.55;;;8.25;;
65202;SDS011;51788;45.124;38.966;2022-09-17T05:23:01;11.85;;;7.05;;
65202;SDS011;51788;45.124;38.966;2022-09-17T05:25:27;16.35;;;7.15;;
65202;SDS011;51788;45.124;38.966;2022-09-17T05:27:53;26.25;;;8.43;;
65202;SDS011;51788;45.124;38.966;2022-09-17T05:30:19;20.33;;;7.57;;
65202;SDS011;51788;45.124;38.966;2022-09-17T05:32:45;20.58;;;7.10;;
65202;SDS011;51788;45.124;38.966;2022-09-17T05:35:11;23.08;;;8.05;;
65202;SDS011;51788;45.124;38.966;2022-09-17T05:37:37;14.40;;;7.10;;
65202;SDS011;51788;45.124;38.966;2022-09-17T05:40:03;13.63;;;6.63;;
65202;SDS011;51788;45.124;38.966;2022-09-17T05:42:31;28.75;;;8.30;;
65202;SDS011;51788;45.124;38.966;2022-09-17T05:44:57;18.48;;;7.57;;
65202;SDS011;51788;45.124;38.966;2022-09-17T05:47:23;19.05;;;9.00;;
65202;SDS011;51788;45.124;38.966;2022-09-17T05:49:49;17.33;;;7.28;;
65202;SDS011;51788;45.124;38.966;2022-09-17T05:52:15;17.73;;;7.82;;
65202;SDS011;51788;45.124;38.966;2022-09-17T05:54:41;20.92;;;8.20;;
65202;SDS011;51788;45.124;38.966;2022-09-17T05:57:07;24.98;;;9.63;;
65202;SDS011;51788;45.124;38.966;2022-09-17T05:59:33;14.80;;;7.22;;
65202;SDS011;51788;45.124;38.966;2022-09-17T06:02:00;16.58;;;7.97;;
65202;SDS011;51788;45.124;38.966;2022-09-17T06:04:26;22.10;;;7.45;;
65202;SDS011;51788;45.124;38.966;2022-09-17T06:06:52;14.02;;;7.45;;
65202;SDS011;51788;45.124;38.966;2022-09-17T06:09:18;12.75;;;7.22;;
65202;SDS011;51788;45.124;38.966;2022-09-17T06:11:44;20.95;;;7.57;;
65202;SDS011;51788;45.124;38.966;2022-09-17T06:14:10;19.55;;;8.45;;
65202;SDS011;51788;45.124;38.966;2022-09-17T06:16:36;16.58;;;7.55;;
65202;SDS011;51788;45.124;38.966;2022-09-17T06:19:02;22.17;;;8.25;;
65202;SDS011;51788;45.124;38.966;2022-09-17T06:21:28;12.68;;;7.10;;
65202;SDS011;51788;45.124;38.966;2022-09-17T06:23:54;17.92;;;8.40;;
65202;SDS011;51788;45.124;38.966;2022-09-17T06:26:20;16.20;;;8.43;;
65202;SDS011;51788;45.124;38.966;2022-09-17T06:28:46;17.88;;;9.63;;
65202;SDS011;51788;45.124;38.966;2022-09-17T06:31:12;13.43;;;8.13;;
65202;SDS011;51788;45.124;38.966;2022-09-17T06:33:39;20.65;;;9.05;;
65202;SDS011;51788;45.124;38.966;2022-09-17T06:36:06;36.15;;;8.40;;
65202;SDS011;51788;45.124;38.966;2022-09-17T06:38:35;21.08;;;8.50;;
65202;SDS011;51788;45.124;38.966;2022-09-17T06:41:01;21.70;;;8.15;;
65202;SDS011;51788;45.124;38.966;2022-09-17T06:43:28;13.27;;;7.63;;
65202;SDS011;51788;45.124;38.966;2022-09-17T06:45:56;22.98;;;7.47;;
65202;SDS011;51788;45.124;38.966;2022-09-17T06:48:26;23.90;;;8.38;;
65202;SDS011;51788;45.124;38.966;2022-09-17T06:50:54;14.10;;;7.55;;
65202;SDS011;51788;45.124;38.966;2022-09-17T06:53:21;16.27;;;7.93;;
65202;SDS011;51788;45.124;38.966;2022-09-17T06:55:48;15.18;;;8.05;;
65202;SDS011;51788;45.124;38.966;2022-09-17T06:58:14;14.80;;;7.65;;
65202;SDS011;51788;45.124;38.966;2022-09-17T07:00:41;15.18;;;8.00;;
65202;SDS011;51788;45.124;38.966;2022-09-17T07:03:07;14.60;;;8.57;;
65202;SDS011;51788;45.124;38.966;2022-09-17T07:05:34;30.65;;;7.95;;
65202;SDS011;51788;45.124;38.966;2022-09-17T07:08:00;22.13;;;8.52;;
65202;SDS011;51788;45.124;38.966;2022-09-17T07:10:27;23.52;;;9.05;;
65202;SDS011;51788;45.124;38.966;2022-09-17T07:12:54;18.00;;;7.90;;
65202;SDS011;51788;45.124;38.966;2022-09-17T07:15:21;22.08;;;8.02;;
65202;SDS011;51788;45.124;38.966;2022-09-17T07:17:47;33.08;;;8.60;;
65202;SDS011;51788;45.124;38.966;2022-09-17T07:20:14;16.17;;;7.85;;
65202;SDS011;51788;45.124;38.966;2022-09-17T07:22:40;16.45;;;8.45;;
65202;SDS011;51788;45.124;38.966;2022-09-17T07:25:06;19.35;;;8.80;;
65202;SDS011;51788;45.124;38.966;2022-09-17T07:27:32;20.02;;;9.70;;
65202;SDS011;51788;45.124;38.966;2022-09-17T07:29:58;26.50;;;13.13;;
65202;SDS011;51788;45.124;38.966;2022-09-17T07:32:28;13.55;;;9.00;;
65202;SDS011;51788;45.124;38.966;2022-09-17T07:34:55;20.52;;;9.38;;
65202;SDS011;51788;45.124;38.966;2022-09-17T07:37:21;21.40;;;8.60;;
65202;SDS011;51788;45.124;38.966;2022-09-17T07:39:47;20.15;;;7.00;;
65202;SDS011;51788;45.124;38.966;2022-09-17T07:42:13;23.55;;;7.05;;
65202;SDS011;51788;45.124;38.966;2022-09-17T07:44:39;21.13;;;7.22;;
65202;SDS011;51788;45.124;38.966;2022-09-17T07:47:05;37.65;;;7.30;;
65202;SDS011;51788;45.124;38.966;2022-09-17T07:49:31;23.95;;;7.03;;
65202;SDS011;51788;45.124;38.966;2022-09-17T07:51:57;15.52;;;4.93;;
65202;SDS011;51788;45.124;38.966;2022-09-17T07:54:29;14.10;;;5.00;;
65202;SDS011;51788;45.124;38.966;2022-09-17T07:56:56;13.10;;;6.03;;
65202;SDS011;51788;45.124;38.966;2022-09-17T07:59:22;16.33;;;5.72;;
65202;SDS011;51788;45.124;38.966;2022-09-17T08:01:48;16.40;;;4.80;;
65202;SDS011;51788;45.124;38.966;2022-09-17T08:04:14;11.85;;;5.55;;
65202;SDS011;51788;45.124;38.966;2022-09-17T08:06:40;8.88;;;4.90;;
65202;SDS011;51788;45.124;38.966;2022-09-17T08:09:06;16.30;;;5.10;;
65202;SDS011;51788;45.124;38.966;2022-09-17T08:11:34;18.40;;;5.60;;
65202;SDS011;51788;45.124;38.966;2022-09-17T08:14:00;13.20;;;6.20;;
65202;SDS011;51788;45.124;38.966;2022-09-17T08:16:26;13.32;;;5.03;;
65202;SDS011;51788;45.124;38.966;2022-09-17T08:18:53;14.30;;;4.82;;
65202;SDS011;51788;45.124;38.966;2022-09-17T08:21:21;11.18;;;4.40;;
65202;SDS011;51788;45.124;38.966;2022-09-17T08:23:47;12.30;;;5.35;;
65202;SDS011;51788;45.124;38.966;2022-09-17T08:26:17;12.68;;;5.10;;
65202;SDS011;51788;45.124;38.966;2022-09-17T08:28:48;10.25;;;4.82;;
65202;SDS011;51788;45.124;38.966;2022-09-17T08:31:16;7.57;;;4.40;;
65202;SDS011;51788;45.124;38.966;2022-09-17T08:33:43;16.20;;;4.90;;
65202;SDS011;51788;45.124;38.966;2022-09-17T08:36:11;5.88;;;4.40;;
65202;SDS011;51788;45.124;38.966;2022-09-17T08:38:38;15.68;;;5.57;;
65202;SDS011;51788;45.124;38.966;2022-09-17T08:41:15;10.10;;;5.30;;
65202;SDS011;51788;45.124;38.966;2022-09-17T08:49:29;7.10;;;3.60;;
65202;SDS011;51788;45.124;38.966;2022-09-17T08:55:22;10.00;;;4.00;;
65202;SDS011;51788;45.124;38.966;2022-09-17T09:00:57;9.73;;;3.47;;
65202;SDS011;51788;45.124;38.966;2022-09-17T09:09:48;5.07;;;3.10;;
65202;SDS011;51788;45.124;38.966;2022-09-17T09:12:39;8.45;;;3.28;;
65202;SDS011;51788;45.124;38.966;2022-09-17T09:15:13;4.70;;;2.83;;
65202;SDS011;51788;45.124;38.966;2022-09-17T09:18:03;8.95;;;2.75;;
65202;SDS011;51788;45.124;38.966;2022-09-17T09:20:50;3.83;;;2.70;;
65202;SDS011;51788;45.124;38.966;2022-09-17T09:23:34;5.80;;;2.47;;
65202;SDS011;51788;45.124;38.966;2022-09-17T09:34:24;10.60;;;2.72;;
65202;SDS011;51788;45.124;38.966;2022-09-17T09:36:53;5.82;;;3.15;;
65202;SDS011;51788;45.124;38.966;2022-09-17T09:39:30;6.40;;;2.65;;
65202;SDS011;51788;45.124;38.966;2022-09-17T09:42:03;5.28;;;2.60;;
65202;SDS011;51788;45.124;38.966;2022-09-17T09:44:34;6.38;;;2.65;;
65202;SDS011;51788;45.124;38.966;2022-09-17T09:47:06;6.93;;;2.67;;
65202;SDS011;51788;45.124;38.966;2022-09-17T10:00:57;6.60;;;2.83;;
65202;SDS011;51788;45.124;38.966;2022-09-17T10:03:26;5.43;;;2.63;;
65202;SDS011;51788;45.124;38.966;2022-09-17T10:08:32;8.85;;;3.20;;
65202;SDS011;51788;45.124;38.966;2022-09-17T10:11:00;2.85;;;2.53;;
65202;SDS011;51788;45.124;38.966;2022-09-17T10:13:47;13.60;;;2.65;;
65202;SDS011;51788;45.124;38.966;2022-09-17T10:16:20;3.25;;;2.20;;
65202;SDS011;51788;45.124;38.966;2022-09-17T10:21:35;7.97;;;3.00;;
65202;SDS011;51788;45.124;38.966;2022-09-17T10:24:24;7.20;;;2.65;;
65202;SDS011;51788;45.124;38.966;2022-09-17T10:27:00;7.68;;;3.15;;
65202;SDS011;51788;45.124;38.966;2022-09-17T10:29:29;3.17;;;2.30;;
65202;SDS011;51788;45.124;38.966;2022-09-17T10:31:56;4.47;;;2.10;;
65202;SDS011;51788;45.124;38.966;2022-09-17T10:34:29;7.03;;;2.63;;
65202;SDS011;51788;45.124;38.966;2022-09-17T10:36:56;5.60;;;2.30;;
65202;SDS011;51788;45.124;38.966;2022-09-17T10:41:58;5.65;;;2.20;;
65202;SDS011;51788;45.124;38.966;2022-09-17T10:44:32;5.43;;;3.40;;
65202;SDS011;51788;45.124;38.966;2022-09-17T10:47:01;9.15;;;3.03;;
65202;SDS011;51788;45.124;38.966;2022-09-17T10:49:42;8.45;;;3.00;;
65202;SDS011;51788;45.124;38.966;2022-09-17T10:52:13;11.20;;;2.70;;
65202;SDS011;51788;45.124;38.966;2022-09-17T11:00:22;4.35;;;2.65;;
65202;SDS011;51788;45.124;38.966;2022-09-17T11:08:33;9.82;;;3.10;;
65202;SDS011;51788;45.124;38.966;2022-09-17T11:11:43;4.85;;;2.70;;
65202;SDS011;51788;45.124;38.966;2022-09-17T11:20:01;5.82;;;2.45;;
65202;SDS011;51788;45.124;38.966;2022-09-17T11:25:22;6.78;;;3.05;;
65202;SDS011;51788;45.124;38.966;2022-09-17T11:36:20;7.25;;;2.42;;
65202;SDS011;51788;45.124;38.966;2022-09-17T11:38:51;8.13;;;4.15;;
65202;SDS011;51788;45.124;38.966;2022-09-17T11:41:22;12.82;;;3.08;;
65202;SDS011;51788;45.124;38.966;2022-09-17T11:46:59;5.20;;;2.70;;
65202;SDS011;51788;45.124;38.966;2022-09-17T11:49:58;10.73;;;3.03;;
65202;SDS011;51788;45.124;38.966;2022-09-17T11:52:31;6.47;;;2.63;;
65202;SDS011;51788;45.124;38.966;2022-09-17T11:55:07;6.38;;;2.72;;
65202;SDS011;51788;45.124;38.966;2022-09-17T11:57:53;3.63;;;2.58;;
65202;SDS011;51788;45.124;38.966;2022-09-17T12:00:25;28.75;;;8.10;;
65202;SDS011;51788;45.124;38.966;2022-09-17T12:06:10;6.22;;;2.85;;
65202;SDS011;51788;45.124;38.966;2022-09-17T12:11:29;12.43;;;3.65;;
65202;SDS011;51788;45.124;38.966;2022-09-17T12:14:02;5.32;;;2.67;;
65202;SDS011;51788;45.124;38.966;2022-09-17T12:16:37;17.00;;;3.45;;
65202;SDS011;51788;45.124;38.966;2022-09-17T12:22:13;18.75;;;4.13;;
65202;SDS011;51788;45.124;38.966;2022-09-17T12:24:54;18.00;;;3.70;;
65202;SDS011;51788;45.124;38.966;2022-09-17T12:27:34;11.38;;;3.85;;
65202;SDS011;51788;45.124;38.966;2022-09-17T12:30:21;16.02;;;4.72;;
65202;SDS011;51788;45.124;38.966;2022-09-17T12:33:12;7.40;;;3.25;;
65202;SDS011;51788;45.124;38.966;2022-09-17T12:38:40;5.82;;;4.10;;
65202;SDS011;51788;45.124;38.966;2022-09-17T12:41:28;5.22;;;3.55;;
65202;SDS011;51788;45.124;38.966;2022-09-17T12:47:08;7.53;;;2.92;;
65202;SDS011;51788;45.124;38.966;2022-09-17T13:01:12;4.07;;;3.00;;
65202;SDS011;51788;45.124;38.966;2022-09-17T13:03:46;11.10;;;3.30;;
65202;SDS011;51788;45.124;38.966;2022-09-17T13:21:12;8.00;;;3.45;;
65202;SDS011;51788;45.124;38.966;2022-09-17T13:23:48;9.15;;;3.10;;
65202;SDS011;51788;45.124;38.966;2022-09-17T13:26:18;7.82;;;3.33;;
65202;SDS011;51788;45.124;38.966;2022-09-17T13:31:45;10.55;;;5.80;;
65202;SDS011;51788;45.124;38.966;2022-09-17T13:39:31;6.55;;;2.85;;
65202;SDS011;51788;45.124;38.966;2022-09-17T13:44:44;12.70;;;3.60;;
65202;SDS011;51788;45.124;38.966;2022-09-17T13:47:35;21.30;;;4.63;;
65202;SDS011;51788;45.124;38.966;2022-09-17T13:50:05;4.95;;;3.45;;
65202;SDS011;51788;45.124;38.966;2022-09-17T13:52:46;7.30;;;3.60;;
65202;SDS011;51788;45.124;38.966;2022-09-17T13:55:34;8.80;;;4.25;;
65202;SDS011;51788;45.124;38.966;2022-09-17T13:58:06;9.43;;;4.20;;
65202;SDS011;51788;45.124;38.966;2022-09-17T14:08:45;14.32;;;9.25;;
65202;SDS011;51788;45.124;38.966;2022-09-17T14:13:50;15.18;;;6.30;;
65202;SDS011;51788;45.124;38.966;2022-09-17T14:21:30;16.13;;;10.88;;
65202;SDS011;51788;45.124;38.966;2022-09-17T14:23:59;8.20;;;3.90;;
65202;SDS011;51788;45.124;38.966;2022-09-17T14:31:45;8.82;;;3.90;;
65202;SDS011;51788;45.124;38.966;2022-09-17T14:34:14;8.23;;;3.83;;
65202;SDS011;51788;45.124;38.966;2022-09-17T14:36:47;16.58;;;5.05;;
65202;SDS011;51788;45.124;38.966;2022-09-17T14:39:16;11.65;;;4.50;;
65202;SDS011;51788;45.124;38.966;2022-09-17T14:41:47;6.50;;;4.43;;
65202;SDS011;51788;45.124;38.966;2022-09-17T14:44:17;9.43;;;3.90;;
65202;SDS011;51788;45.124;38.966;2022-09-17T14:47:06;7.13;;;3.83;;
65202;SDS011;51788;45.124;38.966;2022-09-17T14:49:35;11.57;;;3.90;;
65202;SDS011;51788;45.124;38.966;2022-09-17T14:52:23;9.35;;;4.63;;
65202;SDS011;51788;45.124;38.966;2022-09-17T14:57:37;10.40;;;4.88;;
65202;SDS011;51788;45.124;38.966;2022-09-17T15:00:03;9.27;;;4.53;;
65202;SDS011;51788;45.124;38.966;2022-09-17T15:02:37;10.27;;;4.72;;
65202;SDS011;51788;45.124;38.966;2022-09-17T15:05:19;10.80;;;4.40;;
65202;SDS011;51788;45.124;38.966;2022-09-17T15:10:43;14.30;;;5.15;;
65202;SDS011;51788;45.124;38.966;2022-09-17T15:13:16;11.27;;;4.50;;
65202;SDS011;51788;45.124;38.966;2022-09-17T15:15:52;21.65;;;4.97;;
65202;SDS011;51788;45.124;38.966;2022-09-17T15:18:20;15.60;;;4.45;;
65202;SDS011;51788;45.124;38.966;2022-09-17T15:20:56;18.80;;;5.75;;
65202;SDS011;51788;45.124;38.966;2022-09-17T15:23:24;17.40;;;4.85;;
65202;SDS011;51788;45.124;38.966;2022-09-17T15:25:53;8.45;;;4.75;;
65202;SDS011;51788;45.124;38.966;2022-09-17T15:30:56;10.77;;;4.57;;
65202;SDS011;51788;45.124;38.966;2022-09-17T15:33:21;9.85;;;4.70;;
65202;SDS011;51788;45.124;38.966;2022-09-17T15:35:58;14.75;;;4.75;;
65202;SDS011;51788;45.124;38.966;2022-09-17T15:38:28;15.13;;;6.82;;
65202;SDS011;51788;45.124;38.966;2022-09-17T15:41:09;10.77;;;5.15;;
65202;SDS011;51788;45.124;38.966;2022-09-17T15:43:47;11.68;;;5.40;;
65202;SDS011;51788;45.124;38.966;2022-09-17T15:46:18;14.93;;;5.35;;
65202;SDS011;51788;45.124;38.966;2022-09-17T15:48:46;25.60;;;5.15;;
65202;SDS011;51788;45.124;38.966;2022-09-17T15:51:32;24.75;;;5.35;;
65202;SDS011;51788;45.124;38.966;2022-09-17T15:54:00;17.23;;;5.78;;
65202;SDS011;51788;45.124;38.966;2022-09-17T15:56:32;33.70;;;7.00;;
65202;SDS011;51788;45.124;38.966;2022-09-17T15:59:04;35.75;;;7.78;;
65202;SDS011;51788;45.124;38.966;2022-09-17T16:02:00;26.98;;;10.25;;
65202;SDS011;51788;45.124;38.966;2022-09-17T16:04:27;26.25;;;7.43;;
65202;SDS011;51788;45.124;38.966;2022-09-17T16:07:02;21.37;;;7.73;;
65202;SDS011;51788;45.124;38.966;2022-09-17T16:09:51;31.65;;;8.25;;
65202;SDS011;51788;45.124;38.966;2022-09-17T16:12:19;36.97;;;8.98;;
65202;SDS011;51788;45.124;38.966;2022-09-17T16:14:51;36.60;;;18.50;;
65202;SDS011;51788;45.124;38.966;2022-09-17T16:17:22;48.45;;;24.83;;
65202;SDS011;51788;45.124;38.966;2022-09-17T16:19:53;36.35;;;15.27;;
65202;SDS011;51788;45.124;38.966;2022-09-17T16:22:20;22.75;;;9.23;;
65202;SDS011;51788;45.124;38.966;2022-09-17T16:24:46;16.65;;;10.73;;
65202;SDS011;51788;45.124;38.966;2022-09-17T16:27:16;22.10;;;11.25;;
65202;SDS011;51788;45.124;38.966;2022-09-17T16:29:46;23.33;;;10.15;;
65202;SDS011;51788;45.124;38.966;2022-09-17T16:32:13;26.73;;;10.63;;
65202;SDS011;51788;45.124;38.966;2022-09-17T16:34:39;35.25;;;10.98;;
65202;SDS011;51788;45.124;38.966;2022-09-17T16:37:05;38.72;;;10.85;;
65202;SDS011;51788;45.124;38.966;2022-09-17T16:39:33;55.78;;;22.58;;
65202;SDS011;51788;45.124;38.966;2022-09-17T16:41:59;65.95;;;20.50;;
65202;SDS011;51788;45.124;38.966;2022-09-17T16:44:24;45.53;;;14.70;;
65202;SDS011;51788;45.124;38.966;2022-09-17T16:46:51;45.15;;;15.40;;
65202;SDS011;51788;45.124;38.966;2022-09-17T16:49:16;60.05;;;13.85;;
65202;SDS011;51788;45.124;38.966;2022-09-17T16:51:42;69.70;;;16.10;;
65202;SDS011;51788;45.124;38.966;2022-09-17T16:54:08;39.33;;;14.75;;
65202;SDS011;51788;45.124;38.966;2022-09-17T16:56:34;48.33;;;14.15;;
65202;SDS011;51788;45.124;38.966;2022-09-17T16:59:00;34.20;;;15.05;;
65202;SDS011;51788;45.124;38.966;2022-09-17T17:01:26;57.25;;;18.52;;
65202;SDS011;51788;45.124;38.966;2022-09-17T17:03:52;45.33;;;17.88;;
65202;SDS011;51788;45.124;38.966;2022-09-17T17:06:20;43.97;;;18.42;;
65202;SDS011;51788;45.124;38.966;2022-09-17T17:08:46;55.78;;;17.98;;
65202;SDS011;51788;45.124;38.966;2022-09-17T17:11:13;65.65;;;21.60;;
65202;SDS011;51788;45.124;38.966;2022-09-17T17:13:40;58.08;;;22.55;;
65202;SDS011;51788;45.124;38.966;2022-09-17T17:16:11;63.45;;;21.85;;
65202;SDS011;51788;45.124;38.966;2022-09-17T17:18:42;54.13;;;20.95;;
65202;SDS011;51788;45.124;38.966;2022-09-17T17:21:09;51.42;;;22.88;;
65202;SDS011;51788;45.124;38.966;2022-09-17T17:23:37;85.68;;;24.52;;
65202;SDS011;51788;45.124;38.966;2022-09-17T17:26:03;62.35;;;26.85;;
65202;SDS011;51788;45.124;38.966;2022-09-17T17:28:32;56.28;;;24.50;;
65202;SDS011;51788;45.124;38.966;2022-09-17T17:30:59;62.08;;;25.08;;
65202;SDS011;51788;45.124;38.966;2022-09-17T17:33:27;64.15;;;25.00;;
65202;SDS011;51788;45.124;38.966;2022-09-17T17:35:53;57.67;;;24.92;;
65202;SDS011;51788;45.124;38.966;2022-09-17T17:38:19;68.25;;;26.90;;
65202;SDS011;51788;45.124;38.966;2022-09-17T17:40:45;56.35;;;24.15;;
65202;SDS011;51788;45.124;38.966;2022-09-17T17:43:11;55.30;;;24.65;;
65202;SDS011;51788;45.124;38.966;2022-09-17T17:45:38;60.20;;;24.80;;
65202;SDS011;51788;45.124;38.966;2022-09-17T17:48:04;49.38;;;24.15;;
65202;SDS011;51788;45.124;38.966;2022-09-17T17:50:30;44.35;;;20.35;;
65202;SDS011;51788;45.124;38.966;2022-09-17T17:52:57;38.03;;;18.35;;
65202;SDS011;51788;45.124;38.966;2022-09-17T17:55:23;46.22;;;17.55;;
65202;SDS011;51788;45.124;38.966;2022-09-17T17:57:56;28.20;;;16.08;;
65202;SDS011;51788;45.124;38.966;2022-09-17T18:00:23;45.90;;;18.38;;
65202;SDS011;51788;45.124;38.966;2022-09-17T18:02:49;44.47;;;18.52;;
65202;SDS011;51788;45.124;38.966;2022-09-17T18:05:16;44.47;;;17.05;;